sensor_id;sensor_type;location;lat;lon;timestamp;temperature;humidity
71396;DHT22;59888;55.814;37.132;2023-07-29T00:00:58;19.09;65.43
71396;DHT22;59888;55.814;37.132;2023-07-29T00:03:27;19.02;65.12
71396;DHT22;59888;55.814;37.132;2023-07-29T00:05:53;18.98;65.21
71396;DHT22;59888;55.814;37.132;2023-07-29T00:08:19;18.94;65.12
71396;DHT22;59888;55.814;37.132;2023-07-29T00:10:45;18.91;65.13
71396;DHT22;59888;55.814;37.132;2023-07-29T00:13:12;18.91;65.19
71396;DHT22;59888;55.814;37.132;2023-07-29T00:15:37;18.87;65.26
71396;DHT22;59888;55.814;37.132;2023-07-29T00:18:04;18.89;65.65
71396;DHT22;59888;55.814;37.132;2023-07-29T00:20:30;18.94;65.46
71396;DHT22;59888;55.814;37.132;2023-07-29T00:22:56;18.96;65.43
71396;DHT22;59888;55.814;37.132;2023-07-29T00:25:24;18.97;65.41
71396;DHT22;59888;55.814;37.132;2023-07-29T00:27:50;18.96;65.31
71396;DHT22;59888;55.814;37.132;2023-07-29T00:30:16;18.95;65.26
71396;DHT22;59888;55.814;37.132;2023-07-29T00:32:42;18.95;65.28
71396;DHT22;59888;55.814;37.132;2023-07-29T00:35:08;18.96;65.33
71396;DHT22;59888;55.814;37.132;2023-07-29T00:37:36;18.91;65.30
71396;DHT22;59888;55.814;37.132;2023-07-29T00:40:24;18.88;65.40
71396;DHT22;59888;55.814;37.132;2023-07-29T00:42:53;18.87;65.46
71396;DHT22;59888;55.814;37.132;2023-07-29T00:45:19;18.88;65.46
71396;DHT22;59888;55.814;37.132;2023-07-29T00:47:46;18.89;65.38
71396;DHT22;59888;55.814;37.132;2023-07-29T00:50:13;18.86;65.43
71396;DHT22;59888;55.814;37.132;2023-07-29T00:52:40;18.85;65.36
71396;DHT22;59888;55.814;37.132;2023-07-29T00:55:09;18.80;65.42
71396;DHT22;59888;55.814;37.132;2023-07-29T00:57:35;18.78;65.69
71396;DHT22;59888;55.814;37.132;2023-07-29T01:00:01;18.84;65.75
71396;DHT22;59888;55.814;37.132;2023-07-29T01:02:32;18.88;65.50
71396;DHT22;59888;55.814;37.132;2023-07-29T01:04:58;18.84;65.51
71396;DHT22;59888;55.814;37.132;2023-07-29T01:07:43;18.78;65.81
71396;DHT22;59888;55.814;37.132;2023-07-29T01:10:24;18.73;65.67
71396;DHT22;59888;55.814;37.132;2023-07-29T01:15:36;18.66;65.72
71396;DHT22;59888;55.814;37.132;2023-07-29T01:18:08;18.55;65.93
71396;DHT22;59888;55.814;37.132;2023-07-29T01:20:39;18.52;66.25
71396;DHT22;59888;55.814;37.132;2023-07-29T01:23:06;18.55;66.27
71396;DHT22;59888;55.814;37.132;2023-07-29T01:25:31;18.54;66.05
71396;DHT22;59888;55.814;37.132;2023-07-29T01:27:58;18.50;66.20
71396;DHT22;59888;55.814;37.132;2023-07-29T01:30:30;18.54;66.49
71396;DHT22;59888;55.814;37.132;2023-07-29T01:33:30;18.64;66.37
71396;DHT22;59888;55.814;37.132;2023-07-29T01:36:02;18.67;66.43
71396;DHT22;59888;55.814;37.132;2023-07-29T01:38:48;18.58;66.14
71396;DHT22;59888;55.814;37.132;2023-07-29T01:41:17;18.53;66.46
71396;DHT22;59888;55.814;37.132;2023-07-29T01:43:43;18.54;66.39
71396;DHT22;59888;55.814;37.132;2023-07-29T01:46:11;18.51;66.31
71396;DHT22;59888;55.814;37.132;2023-07-29T01:48:40;18.48;66.46
71396;DHT22;59888;55.814;37.132;2023-07-29T01:51:07;18.47;66.58
71396;DHT22;59888;55.814;37.132;2023-07-29T01:53:33;18.48;66.58
71396;DHT22;59888;55.814;37.132;2023-07-29T01:55:59;18.52;66.55
71396;DHT22;59888;55.814;37.132;2023-07-29T01:58:26;18.51;66.38
71396;DHT22;59888;55.814;37.132;2023-07-29T02:00:52;18.56;66.57
71396;DHT22;59888;55.814;37.132;2023-07-29T02:03:18;18.59;66.25
71396;DHT22;59888;55.814;37.132;2023-07-29T02:05:44;18.61;66.25
71396;DHT22;59888;55.814;37.132;2023-07-29T02:08:11;18.61;66.30
71396;DHT22;59888;55.814;37.132;2023-07-29T02:10:38;18.61;66.21
71396;DHT22;59888;55.814;37.132;2023-07-29T02:13:04;18.64;66.33
71396;DHT22;59888;55.814;37.132;2023-07-29T02:15:31;18.65;66.17
71396;DHT22;59888;55.814;37.132;2023-07-29T02:17:58;18.68;66.39
71396;DHT22;59888;55.814;37.132;2023-07-29T02:20:25;18.77;66.14
71396;DHT22;59888;55.814;37.132;2023-07-29T02:22:52;18.79;66.02
71396;DHT22;59888;55.814;37.132;2023-07-29T02:25:19;18.81;65.88
71396;DHT22;59888;55.814;37.132;2023-07-29T02:27:45;18.77;65.82
71396;DHT22;59888;55.814;37.132;2023-07-29T02:30:12;18.74;65.93
71396;DHT22;59888;55.814;37.132;2023-07-29T02:32:39;18.73;65.79
71396;DHT22;59888;55.814;37.132;2023-07-29T02:35:05;18.76;65.82
71396;DHT22;59888;55.814;37.132;2023-07-29T02:37:32;18.74;65.86
71396;DHT22;59888;55.814;37.132;2023-07-29T02:39:58;18.74;65.78
71396;DHT22;59888;55.814;37.132;2023-07-29T02:42:24;18.80;65.85
71396;DHT22;59888;55.814;37.132;2023-07-29T02:44:50;18.82;65.81
71396;DHT22;59888;55.814;37.132;2023-07-29T02:47:16;18.81;65.80
71396;DHT22;59888;55.814;37.132;2023-07-29T02:49:42;18.77;65.78
71396;DHT22;59888;55.814;37.132;2023-07-29T02:52:08;18.74;65.88
71396;DHT22;59888;55.814;37.132;2023-07-29T02:54:34;18.73;66.00
71396;DHT22;59888;55.814;37.132;2023-07-29T02:57:00;18.77;66.13
71396;DHT22;59888;55.814;37.132;2023-07-29T02:59:26;18.83;66.01
71396;DHT22;59888;55.814;37.132;2023-07-29T03:01:53;18.83;66.07
71396;DHT22;59888;55.814;37.132;2023-07-29T03:04:20;18.91;65.98
71396;DHT22;59888;55.814;37.132;2023-07-29T03:06:46;18.96;66.01
71396;DHT22;59888;55.814;37.132;2023-07-29T03:09:14;18.91;65.54
71396;DHT22;59888;55.814;37.132;2023-07-29T03:11:40;18.81;65.81
71396;DHT22;59888;55.814;37.132;2023-07-29T03:14:06;18.82;65.90
71396;DHT22;59888;55.814;37.132;2023-07-29T03:16:33;18.80;65.89
71396;DHT22;59888;55.814;37.132;2023-07-29T03:19:00;18.80;65.98
71396;DHT22;59888;55.814;37.132;2023-07-29T03:21:27;18.84;65.98
71396;DHT22;59888;55.814;37.132;2023-07-29T03:23:53;18.84;65.96
71396;DHT22;59888;55.814;37.132;2023-07-29T03:26:19;18.83;65.85
71396;DHT22;59888;55.814;37.132;2023-07-29T03:28:45;18.83;65.93
71396;DHT22;59888;55.814;37.132;2023-07-29T03:31:12;18.87;65.85
71396;DHT22;59888;55.814;37.132;2023-07-29T03:33:38;18.91;65.95
71396;DHT22;59888;55.814;37.132;2023-07-29T03:36:05;18.87;65.72
71396;DHT22;59888;55.814;37.132;2023-07-29T03:38:31;18.84;66.07
71396;DHT22;59888;55.814;37.132;2023-07-29T03:40:58;19.00;65.71
71396;DHT22;59888;55.814;37.132;2023-07-29T03:43:24;18.95;65.77
71396;DHT22;59888;55.814;37.132;2023-07-29T03:45:54;18.98;65.67
71396;DHT22;59888;55.814;37.132;2023-07-29T03:48:20;19.05;65.74
71396;DHT22;59888;55.814;37.132;2023-07-29T03:50:46;19.12;65.42
71396;DHT22;59888;55.814;37.132;2023-07-29T03:53:12;19.17;65.57
71396;DHT22;59888;55.814;37.132;2023-07-29T03:55:38;19.27;65.31
71396;DHT22;59888;55.814;37.132;2023-07-29T03:58:04;19.28;65.13
71396;DHT22;59888;55.814;37.132;2023-07-29T04:00:30;19.27;64.92
71396;DHT22;59888;55.814;37.132;2023-07-29T04:02:56;19.36;64.92
71396;DHT22;59888;55.814;37.132;2023-07-29T04:05:22;19.39;64.88
71396;DHT22;59888;55.814;37.132;2023-07-29T04:07:48;19.46;64.65
71396;DHT22;59888;55.814;37.132;2023-07-29T04:10:14;19.42;64.59
71396;DHT22;59888;55.814;37.132;2023-07-29T04:12:41;19.39;64.54
71396;DHT22;59888;55.814;37.132;2023-07-29T04:15:08;19.35;64.65
71396;DHT22;59888;55.814;37.132;2023-07-29T04:17:34;19.35;64.79
71396;DHT22;59888;55.814;37.132;2023-07-29T04:20:00;19.38;64.84
71396;DHT22;59888;55.814;37.132;2023-07-29T04:22:32;19.39;64.75
71396;DHT22;59888;55.814;37.132;2023-07-29T04:24:58;19.39;64.68
71396;DHT22;59888;55.814;37.132;2023-07-29T04:27:24;19.30;64.76
71396;DHT22;59888;55.814;37.132;2023-07-29T04:29:50;19.35;64.94
71396;DHT22;59888;55.814;37.132;2023-07-29T04:32:17;19.39;64.81
71396;DHT22;59888;55.814;37.132;2023-07-29T04:34:43;19.41;64.53
71396;DHT22;59888;55.814;37.132;2023-07-29T04:37:11;19.41;64.79
71396;DHT22;59888;55.814;37.132;2023-07-29T04:39:37;19.50;64.85
71396;DHT22;59888;55.814;37.132;2023-07-29T04:42:03;19.58;64.51
71396;DHT22;59888;55.814;37.132;2023-07-29T04:44:29;19.62;64.27
71396;DHT22;59888;55.814;37.132;2023-07-29T04:46:55;19.62;64.38
71396;DHT22;59888;55.814;37.132;2023-07-29T04:49:21;19.69;64.28
71396;DHT22;59888;55.814;37.132;2023-07-29T04:51:47;19.62;64.27
71396;DHT22;59888;55.814;37.132;2023-07-29T04:54:13;19.60;64.28
71396;DHT22;59888;55.814;37.132;2023-07-29T04:56:40;19.53;64.31
71396;DHT22;59888;55.814;37.132;2023-07-29T04:59:09;19.57;64.46
71396;DHT22;59888;55.814;37.132;2023-07-29T05:01:35;19.67;64.51
71396;DHT22;59888;55.814;37.132;2023-07-29T05:04:01;19.80;63.65
71396;DHT22;59888;55.814;37.132;2023-07-29T05:06:30;19.71;64.05
71396;DHT22;59888;55.814;37.132;2023-07-29T05:09:00;19.70;63.82
71396;DHT22;59888;55.814;37.132;2023-07-29T05:11:38;19.63;64.19
71396;DHT22;59888;55.814;37.132;2023-07-29T05:14:03;19.74;64.04
71396;DHT22;59888;55.814;37.132;2023-07-29T05:16:32;19.76;63.95
71396;DHT22;59888;55.814;37.132;2023-07-29T05:18:58;19.82;63.88
71396;DHT22;59888;55.814;37.132;2023-07-29T05:21:24;19.95;63.83
71396;DHT22;59888;55.814;37.132;2023-07-29T05:23:50;19.96;63.34
71396;DHT22;59888;55.814;37.132;2023-07-29T05:26:16;20.07;63.51
71396;DHT22;59888;55.814;37.132;2023-07-29T05:28:42;20.12;62.89
71396;DHT22;59888;55.814;37.132;2023-07-29T05:31:08;20.07;62.99
71396;DHT22;59888;55.814;37.132;2023-07-29T05:33:35;20.19;63.16
71396;DHT22;59888;55.814;37.132;2023-07-29T05:36:02;20.17;62.87
71396;DHT22;59888;55.814;37.132;2023-07-29T05:38:28;20.26;62.76
71396;DHT22;59888;55.814;37.132;2023-07-29T05:40:54;20.22;62.43
71396;DHT22;59888;55.814;37.132;2023-07-29T05:43:20;20.21;62.86
71396;DHT22;59888;55.814;37.132;2023-07-29T05:45:46;20.18;62.89
71396;DHT22;59888;55.814;37.132;2023-07-29T05:48:12;20.24;62.78
71396;DHT22;59888;55.814;37.132;2023-07-29T05:50:38;20.34;62.51
71396;DHT22;59888;55.814;37.132;2023-07-29T05:53:04;20.43;62.53
71396;DHT22;59888;55.814;37.132;2023-07-29T05:55:30;20.47;62.37
71396;DHT22;59888;55.814;37.132;2023-07-29T05:57:56;20.49;62.34
71396;DHT22;59888;55.814;37.132;2023-07-29T06:00:23;20.56;62.09
71396;DHT22;59888;55.814;37.132;2023-07-29T06:02:52;20.61;62.28
71396;DHT22;59888;55.814;37.132;2023-07-29T06:05:21;20.63;61.92
71396;DHT22;59888;55.814;37.132;2023-07-29T06:07:46;20.59;61.89
71396;DHT22;59888;55.814;37.132;2023-07-29T06:10:15;20.61;61.89
71396;DHT22;59888;55.814;37.132;2023-07-29T06:12:46;20.57;61.21
71396;DHT22;59888;55.814;37.132;2023-07-29T06:15:12;20.44;61.92
71396;DHT22;59888;55.814;37.132;2023-07-29T06:17:41;20.49;61.73
71396;DHT22;59888;55.814;37.132;2023-07-29T06:20:10;20.46;61.75
71396;DHT22;59888;55.814;37.132;2023-07-29T06:22:36;20.30;61.99
71396;DHT22;59888;55.814;37.132;2023-07-29T06:25:04;20.26;62.18
71396;DHT22;59888;55.814;37.132;2023-07-29T06:27:31;20.25;62.27
71396;DHT22;59888;55.814;37.132;2023-07-29T06:29:56;20.25;61.85
71396;DHT22;59888;55.814;37.132;2023-07-29T06:32:22;20.15;61.94
71396;DHT22;59888;55.814;37.132;2023-07-29T06:34:48;20.21;62.11
71396;DHT22;59888;55.814;37.132;2023-07-29T06:37:14;20.22;62.09
71396;DHT22;59888;55.814;37.132;2023-07-29T06:39:40;20.29;61.99
71396;DHT22;59888;55.814;37.132;2023-07-29T06:42:06;20.39;61.70
71396;DHT22;59888;55.814;37.132;2023-07-29T06:44:32;20.43;61.66
71396;DHT22;59888;55.814;37.132;2023-07-29T06:47:00;20.54;61.68
71396;DHT22;59888;55.814;37.132;2023-07-29T06:49:26;20.63;61.37
71396;DHT22;59888;55.814;37.132;2023-07-29T06:51:52;20.80;61.25
71396;DHT22;59888;55.814;37.132;2023-07-29T06:54:18;20.90;60.89
71396;DHT22;59888;55.814;37.132;2023-07-29T06:56:44;20.85;60.44
71396;DHT22;59888;55.814;37.132;2023-07-29T06:59:10;20.85;60.58
71396;DHT22;59888;55.814;37.132;2023-07-29T07:01:36;20.88;60.51
71396;DHT22;59888;55.814;37.132;2023-07-29T07:04:02;20.98;60.40
71396;DHT22;59888;55.814;37.132;2023-07-29T07:06:28;21.00;60.11
71396;DHT22;59888;55.814;37.132;2023-07-29T07:08:54;21.05;59.99
71396;DHT22;59888;55.814;37.132;2023-07-29T07:11:21;20.99;60.06
71396;DHT22;59888;55.814;37.132;2023-07-29T07:13:47;20.96;59.79
71396;DHT22;59888;55.814;37.132;2023-07-29T07:16:16;20.89;59.64
71396;DHT22;59888;55.814;37.132;2023-07-29T07:18:42;20.90;60.12
71396;DHT22;59888;55.814;37.132;2023-07-29T07:21:07;21.03;59.57
71396;DHT22;59888;55.814;37.132;2023-07-29T07:23:34;21.04;59.78
71396;DHT22;59888;55.814;37.132;2023-07-29T07:26:00;21.07;59.51
71396;DHT22;59888;55.814;37.132;2023-07-29T07:28:26;21.04;59.60
71396;DHT22;59888;55.814;37.132;2023-07-29T07:30:52;21.03;59.35
71396;DHT22;59888;55.814;37.132;2023-07-29T07:33:18;21.01;59.24
71396;DHT22;59888;55.814;37.132;2023-07-29T07:35:43;21.01;59.54
71396;DHT22;59888;55.814;37.132;2023-07-29T07:38:11;21.17;59.47
71396;DHT22;59888;55.814;37.132;2023-07-29T07:40:37;21.35;59.35
71396;DHT22;59888;55.814;37.132;2023-07-29T07:43:03;21.53;58.87
71396;DHT22;59888;55.814;37.132;2023-07-29T07:45:31;21.54;58.18
71396;DHT22;59888;55.814;37.132;2023-07-29T07:47:58;21.48;58.59
71396;DHT22;59888;55.814;37.132;2023-07-29T07:50:24;21.42;58.38
71396;DHT22;59888;55.814;37.132;2023-07-29T07:52:51;21.53;58.40
71396;DHT22;59888;55.814;37.132;2023-07-29T07:55:16;21.67;57.68
71396;DHT22;59888;55.814;37.132;2023-07-29T07:57:43;21.76;57.90
71396;DHT22;59888;55.814;37.132;2023-07-29T08:00:10;21.88;57.10
71396;DHT22;59888;55.814;37.132;2023-07-29T08:02:43;21.87;57.96
71396;DHT22;59888;55.814;37.132;2023-07-29T08:05:11;21.77;57.27
71396;DHT22;59888;55.814;37.132;2023-07-29T08:07:37;21.74;57.42
71396;DHT22;59888;55.814;37.132;2023-07-29T08:10:03;21.55;56.38
71396;DHT22;59888;55.814;37.132;2023-07-29T08:12:31;21.49;56.16
71396;DHT22;59888;55.814;37.132;2023-07-29T08:14:57;21.43;57.03
71396;DHT22;59888;55.814;37.132;2023-07-29T08:17:23;21.48;57.25
71396;DHT22;59888;55.814;37.132;2023-07-29T08:19:50;21.40;56.89
71396;DHT22;59888;55.814;37.132;2023-07-29T08:22:16;21.40;56.95
71396;DHT22;59888;55.814;37.132;2023-07-29T08:24:43;21.52;56.84
71396;DHT22;59888;55.814;37.132;2023-07-29T08:27:10;21.54;56.45
71396;DHT22;59888;55.814;37.132;2023-07-29T08:29:38;21.66;56.95
71396;DHT22;59888;55.814;37.132;2023-07-29T08:32:06;21.73;56.49
71396;DHT22;59888;55.814;37.132;2023-07-29T08:34:33;21.90;56.40
71396;DHT22;59888;55.814;37.132;2023-07-29T08:36:59;22.08;55.50
71396;DHT22;59888;55.814;37.132;2023-07-29T08:39:25;21.98;55.78
71396;DHT22;59888;55.814;37.132;2023-07-29T08:42:01;22.07;56.08
71396;DHT22;59888;55.814;37.132;2023-07-29T08:44:36;22.19;55.88
71396;DHT22;59888;55.814;37.132;2023-07-29T08:47:06;22.25;55.12
71396;DHT22;59888;55.814;37.132;2023-07-29T08:49:32;22.25;55.36
71396;DHT22;59888;55.814;37.132;2023-07-29T08:51:59;22.31;55.33
71396;DHT22;59888;55.814;37.132;2023-07-29T08:54:25;22.33;55.10
71396;DHT22;59888;55.814;37.132;2023-07-29T08:56:52;22.40;55.09
71396;DHT22;59888;55.814;37.132;2023-07-29T08:59:19;22.58;54.86
71396;DHT22;59888;55.814;37.132;2023-07-29T09:01:47;22.54;54.51
71396;DHT22;59888;55.814;37.132;2023-07-29T09:04:15;22.55;54.25
71396;DHT22;59888;55.814;37.132;2023-07-29T09:06:43;22.66;54.26
71396;DHT22;59888;55.814;37.132;2023-07-29T09:09:12;22.67;53.49
71396;DHT22;59888;55.814;37.132;2023-07-29T09:11:38;22.71;53.07
71396;DHT22;59888;55.814;37.132;2023-07-29T09:14:04;22.72;53.39
71396;DHT22;59888;55.814;37.132;2023-07-29T09:16:32;22.85;53.28
71396;DHT22;59888;55.814;37.132;2023-07-29T09:19:01;22.99;53.13
71396;DHT22;59888;55.814;37.132;2023-07-29T09:21:28;23.16;53.28
71396;DHT22;59888;55.814;37.132;2023-07-29T09:23:55;23.40;53.21
71396;DHT22;59888;55.814;37.132;2023-07-29T09:26:26;23.64;52.98
71396;DHT22;59888;55.814;37.132;2023-07-29T09:28:54;23.75;52.88
71396;DHT22;59888;55.814;37.132;2023-07-29T09:31:22;23.83;52.31
71396;DHT22;59888;55.814;37.132;2023-07-29T09:33:48;23.79;52.09
71396;DHT22;59888;55.814;37.132;2023-07-29T09:36:14;23.71;52.23
71396;DHT22;59888;55.814;37.132;2023-07-29T09:38:43;23.70;52.18
71396;DHT22;59888;55.814;37.132;2023-07-29T09:41:13;23.57;51.94
71396;DHT22;59888;55.814;37.132;2023-07-29T09:43:40;23.47;52.43
71396;DHT22;59888;55.814;37.132;2023-07-29T09:46:06;23.47;52.26
71396;DHT22;59888;55.814;37.132;2023-07-29T09:48:35;23.58;51.98
71396;DHT22;59888;55.814;37.132;2023-07-29T09:51:10;23.59;51.39
71396;DHT22;59888;55.814;37.132;2023-07-29T09:53:46;23.72;51.97
71396;DHT22;59888;55.814;37.132;2023-07-29T09:56:13;23.80;51.95
71396;DHT22;59888;55.814;37.132;2023-07-29T09:58:40;23.88;51.98
71396;DHT22;59888;55.814;37.132;2023-07-29T10:01:08;23.95;51.48
71396;DHT22;59888;55.814;37.132;2023-07-29T10:03:35;23.91;50.92
71396;DHT22;59888;55.814;37.132;2023-07-29T10:06:06;23.77;50.52
71396;DHT22;59888;55.814;37.132;2023-07-29T10:08:33;23.64;50.66
71396;DHT22;59888;55.814;37.132;2023-07-29T10:11:02;23.66;50.62
71396;DHT22;59888;55.814;37.132;2023-07-29T10:13:28;23.74;51.36
71396;DHT22;59888;55.814;37.132;2023-07-29T10:15:54;23.83;51.30
71396;DHT22;59888;55.814;37.132;2023-07-29T10:18:24;23.83;50.63
71396;DHT22;59888;55.814;37.132;2023-07-29T10:20:51;23.85;50.74
71396;DHT22;59888;55.814;37.132;2023-07-29T10:23:18;23.81;50.82
71396;DHT22;59888;55.814;37.132;2023-07-29T10:25:49;23.75;50.88
71396;DHT22;59888;55.814;37.132;2023-07-29T10:28:20;23.71;50.79
71396;DHT22;59888;55.814;37.132;2023-07-29T10:30:47;23.58;50.47
71396;DHT22;59888;55.814;37.132;2023-07-29T10:33:14;23.47;50.02
71396;DHT22;59888;55.814;37.132;2023-07-29T10:35:40;23.43;50.38
71396;DHT22;59888;55.814;37.132;2023-07-29T10:38:07;23.36;50.91
71396;DHT22;59888;55.814;37.132;2023-07-29T10:41:08;23.44;50.40
71396;DHT22;59888;55.814;37.132;2023-07-29T10:43:37;23.42;51.08
71396;DHT22;59888;55.814;37.132;2023-07-29T10:46:23;23.26;49.91
71396;DHT22;59888;55.814;37.132;2023-07-29T10:51:31;23.06;50.65
71396;DHT22;59888;55.814;37.132;2023-07-29T10:54:10;23.10;50.38
71396;DHT22;59888;55.814;37.132;2023-07-29T10:56:41;23.09;50.73
71396;DHT22;59888;55.814;37.132;2023-07-29T11:01:57;23.24;50.18
71396;DHT22;59888;55.814;37.132;2023-07-29T11:04:27;23.24;49.52
71396;DHT22;59888;55.814;37.132;2023-07-29T11:12:49;23.06;49.90
71396;DHT22;59888;55.814;37.132;2023-07-29T11:15:27;22.97;50.16
71396;DHT22;59888;55.814;37.132;2023-07-29T11:20:33;22.70;49.63
71396;DHT22;59888;55.814;37.132;2023-07-29T11:23:03;22.72;50.95
71396;DHT22;59888;55.814;37.132;2023-07-29T11:25:30;22.71;50.42
71396;DHT22;59888;55.814;37.132;2023-07-29T11:27:58;22.70;51.01
71396;DHT22;59888;55.814;37.132;2023-07-29T11:30:25;22.73;50.85
71396;DHT22;59888;55.814;37.132;2023-07-29T11:32:58;22.83;50.72
71396;DHT22;59888;55.814;37.132;2023-07-29T11:35:25;22.86;50.77
71396;DHT22;59888;55.814;37.132;2023-07-29T11:37:53;22.82;49.81
71396;DHT22;59888;55.814;37.132;2023-07-29T11:40:23;22.75;49.59
71396;DHT22;59888;55.814;37.132;2023-07-29T11:42:52;22.49;49.89
71396;DHT22;59888;55.814;37.132;2023-07-29T11:45:19;22.36;50.58
71396;DHT22;59888;55.814;37.132;2023-07-29T11:47:46;22.28;50.35
71396;DHT22;59888;55.814;37.132;2023-07-29T11:50:13;22.23;50.46
71396;DHT22;59888;55.814;37.132;2023-07-29T11:52:46;22.16;50.21
71396;DHT22;59888;55.814;37.132;2023-07-29T11:55:13;22.14;50.41
71396;DHT22;59888;55.814;37.132;2023-07-29T11:57:41;22.20;50.43
71396;DHT22;59888;55.814;37.132;2023-07-29T12:00:10;22.23;50.32
71396;DHT22;59888;55.814;37.132;2023-07-29T12:02:41;22.36;50.22
71396;DHT22;59888;55.814;37.132;2023-07-29T12:05:13;22.47;50.07
71396;DHT22;59888;55.814;37.132;2023-07-29T12:07:39;22.53;49.91
71396;DHT22;59888;55.814;37.132;2023-07-29T12:10:07;22.66;49.91
71396;DHT22;59888;55.814;37.132;2023-07-29T12:12:35;22.85;49.74
71396;DHT22;59888;55.814;37.132;2023-07-29T12:15:03;22.92;48.77
71396;DHT22;59888;55.814;37.132;2023-07-29T12:17:30;23.01;48.54
71396;DHT22;59888;55.814;37.132;2023-07-29T12:19:56;22.99;49.02
71396;DHT22;59888;55.814;37.132;2023-07-29T12:22:22;22.95;48.64
71396;DHT22;59888;55.814;37.132;2023-07-29T12:24:51;23.03;48.60
71396;DHT22;59888;55.814;37.132;2023-07-29T12:27:21;23.15;48.63
71396;DHT22;59888;55.814;37.132;2023-07-29T12:29:51;23.24;48.39
71396;DHT22;59888;55.814;37.132;2023-07-29T12:32:18;23.24;48.63
71396;DHT22;59888;55.814;37.132;2023-07-29T12:34:44;23.27;48.90
71396;DHT22;59888;55.814;37.132;2023-07-29T12:37:10;23.26;48.98
71396;DHT22;59888;55.814;37.132;2023-07-29T12:39:40;23.35;48.68
71396;DHT22;59888;55.814;37.132;2023-07-29T12:42:08;23.47;48.90
71396;DHT22;59888;55.814;37.132;2023-07-29T12:44:35;23.56;48.58
71396;DHT22;59888;55.814;37.132;2023-07-29T12:47:03;23.42;48.42
71396;DHT22;59888;55.814;37.132;2023-07-29T12:49:30;23.35;48.86
71396;DHT22;59888;55.814;37.132;2023-07-29T12:51:58;23.31;48.56
71396;DHT22;59888;55.814;37.132;2023-07-29T12:54:24;23.32;48.66
71396;DHT22;59888;55.814;37.132;2023-07-29T12:56:50;23.27;49.11
71396;DHT22;59888;55.814;37.132;2023-07-29T12:59:16;23.20;48.93
71396;DHT22;59888;55.814;37.132;2023-07-29T13:01:42;23.28;49.08
71396;DHT22;59888;55.814;37.132;2023-07-29T13:04:10;23.34;48.68
71396;DHT22;59888;55.814;37.132;2023-07-29T13:06:36;23.32;48.60
71396;DHT22;59888;55.814;37.132;2023-07-29T13:09:02;23.42;48.66
71396;DHT22;59888;55.814;37.132;2023-07-29T13:11:29;23.45;48.65
71396;DHT22;59888;55.814;37.132;2023-07-29T13:13:55;23.58;48.32
71396;DHT22;59888;55.814;37.132;2023-07-29T13:16:21;23.57;48.36
71396;DHT22;59888;55.814;37.132;2023-07-29T13:18:47;23.60;48.48
71396;DHT22;59888;55.814;37.132;2023-07-29T13:21:13;23.71;48.39
71396;DHT22;59888;55.814;37.132;2023-07-29T13:23:39;23.86;48.22
71396;DHT22;59888;55.814;37.132;2023-07-29T13:26:05;23.99;47.95
71396;DHT22;59888;55.814;37.132;2023-07-29T13:28:33;24.09;48.32
71396;DHT22;59888;55.814;37.132;2023-07-29T13:30:59;24.17;47.82
71396;DHT22;59888;55.814;37.132;2023-07-29T13:33:26;24.47;46.80
71396;DHT22;59888;55.814;37.132;2023-07-29T13:35:52;24.80;47.18
71396;DHT22;59888;55.814;37.132;2023-07-29T13:38:19;25.42;47.01
71396;DHT22;59888;55.814;37.132;2023-07-29T13:40:45;25.93;45.42
71396;DHT22;59888;55.814;37.132;2023-07-29T13:43:12;26.43;44.80
71396;DHT22;59888;55.814;37.132;2023-07-29T13:45:38;26.89;44.52
71396;DHT22;59888;55.814;37.132;2023-07-29T13:48:05;27.27;43.54
71396;DHT22;59888;55.814;37.132;2023-07-29T13:50:32;27.35;42.88
71396;DHT22;59888;55.814;37.132;2023-07-29T13:52:59;27.27;42.90
71396;DHT22;59888;55.814;37.132;2023-07-29T13:55:25;27.25;43.11
71396;DHT22;59888;55.814;37.132;2023-07-29T13:57:52;27.24;42.80
71396;DHT22;59888;55.814;37.132;2023-07-29T14:00:19;27.23;43.24
71396;DHT22;59888;55.814;37.132;2023-07-29T14:02:45;27.10;43.13
71396;DHT22;59888;55.814;37.132;2023-07-29T14:05:11;27.22;42.70
71396;DHT22;59888;55.814;37.132;2023-07-29T14:07:39;27.24;42.58
71396;DHT22;59888;55.814;37.132;2023-07-29T14:10:05;27.44;42.99
71396;DHT22;59888;55.814;37.132;2023-07-29T14:12:31;27.67;43.36
71396;DHT22;59888;55.814;37.132;2023-07-29T14:14:57;27.63;42.22
71396;DHT22;59888;55.814;37.132;2023-07-29T14:17:24;27.64;42.24
71396;DHT22;59888;55.814;37.132;2023-07-29T14:19:50;27.64;42.39
71396;DHT22;59888;55.814;37.132;2023-07-29T14:22:16;27.49;41.97
71396;DHT22;59888;55.814;37.132;2023-07-29T14:24:41;27.28;42.32
71396;DHT22;59888;55.814;37.132;2023-07-29T14:27:09;27.16;42.36
71396;DHT22;59888;55.814;37.132;2023-07-29T14:29:35;27.13;42.15
71396;DHT22;59888;55.814;37.132;2023-07-29T14:32:01;27.08;42.08
71396;DHT22;59888;55.814;37.132;2023-07-29T14:34:27;26.92;41.91
71396;DHT22;59888;55.814;37.132;2023-07-29T14:36:52;26.79;43.13
71396;DHT22;59888;55.814;37.132;2023-07-29T14:39:19;26.79;42.06
71396;DHT22;59888;55.814;37.132;2023-07-29T14:41:45;26.87;42.95
71396;DHT22;59888;55.814;37.132;2023-07-29T14:44:10;26.89;42.13
71396;DHT22;59888;55.814;37.132;2023-07-29T14:46:37;26.66;42.27
71396;DHT22;59888;55.814;37.132;2023-07-29T14:49:02;26.45;42.58
71396;DHT22;59888;55.814;37.132;2023-07-29T14:51:28;26.36;42.77
71396;DHT22;59888;55.814;37.132;2023-07-29T14:53:55;26.52;42.65
71396;DHT22;59888;55.814;37.132;2023-07-29T14:56:21;26.65;42.55
71396;DHT22;59888;55.814;37.132;2023-07-29T14:58:47;26.82;42.54
71396;DHT22;59888;55.814;37.132;2023-07-29T15:01:15;26.89;41.72
71396;DHT22;59888;55.814;37.132;2023-07-29T15:03:41;27.24;41.94
71396;DHT22;59888;55.814;37.132;2023-07-29T15:06:07;27.63;41.34
71396;DHT22;59888;55.814;37.132;2023-07-29T15:08:33;28.30;40.55
71396;DHT22;59888;55.814;37.132;2023-07-29T15:10:59;29.37;39.14
71396;DHT22;59888;55.814;37.132;2023-07-29T15:13:25;30.49;38.20
71396;DHT22;59888;55.814;37.132;2023-07-29T15:15:51;31.40;37.11
71396;DHT22;59888;55.814;37.132;2023-07-29T15:18:17;32.22;35.88
71396;DHT22;59888;55.814;37.132;2023-07-29T15:20:43;32.64;35.50
71396;DHT22;59888;55.814;37.132;2023-07-29T15:23:10;32.82;34.95
71396;DHT22;59888;55.814;37.132;2023-07-29T15:25:36;32.63;34.41
71396;DHT22;59888;55.814;37.132;2023-07-29T15:28:05;32.87;34.41
71396;DHT22;59888;55.814;37.132;2023-07-29T15:30:35;33.09;32.60
71396;DHT22;59888;55.814;37.132;2023-07-29T15:33:01;33.30;33.50